AQQ10 IFIS: Internet Flight Information System
logo dgac
Martes 21 de Septiembre del 2021
Buscar por aerodromo o helipuerto
Ingrese nombre de aeródromo, localidad o designador OACI:
METAR del 21-09-2021 a las 10:00 UTC
Para mayor información visite www.meteochile.cl
METAR SCVD 211000Z AUTO 20002KT 9000 FEW003 00/00 Q1018
Viento: dirección 200 grados, velocidad 2 nudos
Visibilidad: 9000 metros
Nubes: Escasa nubosidad a 300 pies sobre el nivel del aeródromo
Temperatura: 0 °C
Rocío: 0 °C
Humedad_relativa: 100%
Presión: 1018 hPa
METAR del 21-09-2021 a las 09:00 UTC
Para mayor información visite www.meteochile.cl
METAR SCVD 210900Z AUTO 18005KT 9000 VV001 01/01 Q1018
Viento: dirección 180 grados, velocidad 5 nudos
Visibilidad: 9000 metros
Visib_vertical: Cielo oscurecido, : 100 pies de visibilidad vertical
Temperatura: 1 °C
Rocío: 1 °C
Humedad_relativa: 100%
Presión: 1018 hPa
METAR del 21-09-2021 a las 08:00 UTC
Para mayor información visite www.meteochile.cl
METAR SCVD 210800Z AUTO VRB01KT 4800 R35/0650VP2000N BR NCD 01/01 Q1019
Viento: dirección variable, velocidad 1 nudos
Visibilidad: 4800 metros
Alcance_pista: Pista 35: Alcance visual desde la zona de contacto variable de 0650 a 2000 metros
Neblina
Temperatura: 1 °C
Rocío: 1 °C
Humedad_relativa: 100%
Presión: 1019 hPa
METAR del 21-09-2021 a las 07:00 UTC
Para mayor información visite www.meteochile.cl
METAR SCVD 210700Z AUTO VRB02KT CAVOK 02/02 Q1020
Viento: dirección variable, velocidad 2 nudos
Visibilidad: 10 km o más,
    sin nubes bajo los 5.000 pies o bajo del MSA (Mínimo de Seguridad del Aeródromo),
    sin cumulonimbus, y sin fenómenos de tiempo significativo en el aeródromo o alrededores
Temperatura: 2 °C
Rocío: 2 °C
Humedad_relativa: 100%
Presión: 1020 hPa
METAR del 21-09-2021 a las 06:00 UTC
Para mayor información visite www.meteochile.cl
METAR SCVD 210600Z AUTO 00000KT CAVOK 02/02 Q1021
Visibilidad: 10 km o más,
    sin nubes bajo los 5.000 pies o bajo del MSA (Mínimo de Seguridad del Aeródromo),
    sin cumulonimbus, y sin fenómenos de tiempo significativo en el aeródromo o alrededores
Temperatura: 2 °C
Rocío: 2 °C
Humedad_relativa: 100%
Presión: 1021 hPa
METAR del 21-09-2021 a las 05:00 UTC
Para mayor información visite www.meteochile.cl
METAR SCVD 210500Z AUTO 00000KT CAVOK 02/02 Q1022
Visibilidad: 10 km o más,
    sin nubes bajo los 5.000 pies o bajo del MSA (Mínimo de Seguridad del Aeródromo),
    sin cumulonimbus, y sin fenómenos de tiempo significativo en el aeródromo o alrededores
Temperatura: 2 °C
Rocío: 2 °C
Humedad_relativa: 100%
Presión: 1022 hPa
METAR del 21-09-2021 a las 04:00 UTC
Para mayor información visite www.meteochile.cl
METAR SCVD 210400Z AUTO 00000KT CAVOK 03/03 Q1023
Visibilidad: 10 km o más,
    sin nubes bajo los 5.000 pies o bajo del MSA (Mínimo de Seguridad del Aeródromo),
    sin cumulonimbus, y sin fenómenos de tiempo significativo en el aeródromo o alrededores
Temperatura: 3 °C
Rocío: 3 °C
Humedad_relativa: 100%
Presión: 1023 hPa
METAR del 21-09-2021 a las 03:00 UTC
Para mayor información visite www.meteochile.cl
METAR SCVD 210300Z AUTO VRB01KT CAVOK 05/04 Q1023
Viento: dirección variable, velocidad 1 nudos
Visibilidad: 10 km o más,
    sin nubes bajo los 5.000 pies o bajo del MSA (Mínimo de Seguridad del Aeródromo),
    sin cumulonimbus, y sin fenómenos de tiempo significativo en el aeródromo o alrededores
Temperatura: 5 °C
Rocío: 4 °C
Humedad_relativa: 93%
Presión: 1023 hPa
METAR del 21-09-2021 a las 02:00 UTC
Para mayor información visite www.meteochile.cl
METAR SCVD 210200Z AUTO VRB02KT CAVOK 06/05 Q1024
Viento: dirección variable, velocidad 2 nudos
Visibilidad: 10 km o más,
    sin nubes bajo los 5.000 pies o bajo del MSA (Mínimo de Seguridad del Aeródromo),
    sin cumulonimbus, y sin fenómenos de tiempo significativo en el aeródromo o alrededores
Temperatura: 6 °C
Rocío: 5 °C
Humedad_relativa: 93%
Presión: 1024 hPa
METAR del 21-09-2021 a las 01:00 UTC
Para mayor información visite www.meteochile.cl
METAR SCVD 210100Z AUTO VRB02KT CAVOK 08/06 Q1024
Viento: dirección variable, velocidad 2 nudos
Visibilidad: 10 km o más,
    sin nubes bajo los 5.000 pies o bajo del MSA (Mínimo de Seguridad del Aeródromo),
    sin cumulonimbus, y sin fenómenos de tiempo significativo en el aeródromo o alrededores
Temperatura: 8 °C
Rocío: 6 °C
Humedad_relativa: 87%
Presión: 1024 hPa